sensor_id;sensor_type;location;lat;lon;timestamp;P1;durP1;ratioP1;P2;durP2;ratioP2
6527;SDS011;64597;42.664;23.256;2023-07-20T00:00:02;4.65;;;2.08;;
6527;SDS011;64597;42.664;23.256;2023-07-20T00:02:28;6.68;;;2.30;;
6527;SDS011;64597;42.664;23.256;2023-07-20T00:04:55;5.07;;;2.17;;
6527;SDS011;64597;42.664;23.256;2023-07-20T00:07:22;5.38;;;2.20;;
6527;SDS011;64597;42.664;23.256;2023-07-20T00:09:51;6.20;;;2.05;;
6527;SDS011;64597;42.664;23.256;2023-07-20T00:12:16;5.88;;;2.20;;
6527;SDS011;64597;42.664;23.256;2023-07-20T00:14:42;6.18;;;3.17;;
6527;SDS011;64597;42.664;23.256;2023-07-20T00:17:09;4.03;;;1.80;;
6527;SDS011;64597;42.664;23.256;2023-07-20T00:19:35;5.10;;;1.92;;
6527;SDS011;64597;42.664;23.256;2023-07-20T00:22:03;4.60;;;1.88;;
6527;SDS011;64597;42.664;23.256;2023-07-20T00:24:30;8.10;;;2.05;;
6527;SDS011;64597;42.664;23.256;2023-07-20T00:26:56;7.90;;;2.40;;
6527;SDS011;64597;42.664;23.256;2023-07-20T00:29:22;7.70;;;2.60;;
6527;SDS011;64597;42.664;23.256;2023-07-20T00:31:49;3.53;;;2.13;;
6527;SDS011;64597;42.664;23.256;2023-07-20T00:34:16;5.65;;;2.17;;
6527;SDS011;64597;42.664;23.256;2023-07-20T00:36:42;4.95;;;2.50;;
6527;SDS011;64597;42.664;23.256;2023-07-20T00:39:07;4.90;;;2.20;;
6527;SDS011;64597;42.664;23.256;2023-07-20T00:41:37;5.03;;;1.95;;
6527;SDS011;64597;42.664;23.256;2023-07-20T00:44:04;5.30;;;2.03;;
6527;SDS011;64597;42.664;23.256;2023-07-20T00:46:31;4.55;;;1.60;;
6527;SDS011;64597;42.664;23.256;2023-07-20T00:48:58;5.60;;;2.42;;
6527;SDS011;64597;42.664;23.256;2023-07-20T00:51:26;5.50;;;2.08;;
6527;SDS011;64597;42.664;23.256;2023-07-20T00:53:54;5.63;;;2.30;;
6527;SDS011;64597;42.664;23.256;2023-07-20T00:56:21;7.15;;;2.15;;
6527;SDS011;64597;42.664;23.256;2023-07-20T00:58:47;3.53;;;1.92;;
6527;SDS011;64597;42.664;23.256;2023-07-20T01:01:14;6.35;;;3.55;;
6527;SDS011;64597;42.664;23.256;2023-07-20T01:03:41;6.45;;;2.55;;
6527;SDS011;64597;42.664;23.256;2023-07-20T01:09:13;4.35;;;2.03;;
6527;SDS011;64597;42.664;23.256;2023-07-20T01:14:56;6.28;;;2.38;;
6527;SDS011;64597;42.664;23.256;2023-07-20T01:17:22;7.22;;;2.60;;
6527;SDS011;64597;42.664;23.256;2023-07-20T01:19:49;6.25;;;2.58;;
6527;SDS011;64597;42.664;23.256;2023-07-20T01:27:35;6.07;;;2.40;;
6527;SDS011;64597;42.664;23.256;2023-07-20T01:32:42;4.07;;;2.50;;
6527;SDS011;64597;42.664;23.256;2023-07-20T01:35:10;4.75;;;2.35;;
6527;SDS011;64597;42.664;23.256;2023-07-20T01:37:40;5.45;;;2.13;;
6527;SDS011;64597;42.664;23.256;2023-07-20T01:40:10;6.53;;;2.53;;
6527;SDS011;64597;42.664;23.256;2023-07-20T01:42:42;3.92;;;2.05;;
6527;SDS011;64597;42.664;23.256;2023-07-20T01:45:10;8.88;;;3.42;;
6527;SDS011;64597;42.664;23.256;2023-07-20T01:47:35;7.97;;;2.72;;
6527;SDS011;64597;42.664;23.256;2023-07-20T01:50:02;4.57;;;2.50;;
6527;SDS011;64597;42.664;23.256;2023-07-20T01:52:28;4.53;;;2.03;;
6527;SDS011;64597;42.664;23.256;2023-07-20T01:54:55;3.75;;;2.22;;
6527;SDS011;64597;42.664;23.256;2023-07-20T01:57:22;9.90;;;2.58;;
6527;SDS011;64597;42.664;23.256;2023-07-20T01:59:49;4.90;;;3.20;;
6527;SDS011;64597;42.664;23.256;2023-07-20T02:02:15;7.05;;;2.42;;
6527;SDS011;64597;42.664;23.256;2023-07-20T02:04:43;4.70;;;2.60;;
6527;SDS011;64597;42.664;23.256;2023-07-20T02:07:08;5.38;;;2.35;;
6527;SDS011;64597;42.664;23.256;2023-07-20T02:09:34;7.07;;;2.70;;
6527;SDS011;64597;42.664;23.256;2023-07-20T02:12:05;5.97;;;2.63;;
6527;SDS011;64597;42.664;23.256;2023-07-20T02:14:32;7.57;;;3.10;;
6527;SDS011;64597;42.664;23.256;2023-07-20T02:17:00;6.47;;;3.25;;
6527;SDS011;64597;42.664;23.256;2023-07-20T02:19:28;8.00;;;2.85;;
6527;SDS011;64597;42.664;23.256;2023-07-20T02:21:56;7.10;;;2.72;;
6527;SDS011;64597;42.664;23.256;2023-07-20T02:24:23;5.90;;;2.75;;
6527;SDS011;64597;42.664;23.256;2023-07-20T02:26:49;4.80;;;3.50;;
6527;SDS011;64597;42.664;23.256;2023-07-20T02:29:16;9.65;;;3.33;;
6527;SDS011;64597;42.664;23.256;2023-07-20T02:31:42;10.30;;;3.10;;
6527;SDS011;64597;42.664;23.256;2023-07-20T02:34:08;6.28;;;3.15;;
6527;SDS011;64597;42.664;23.256;2023-07-20T02:36:35;5.38;;;2.53;;
6527;SDS011;64597;42.664;23.256;2023-07-20T02:39:01;8.15;;;3.08;;
6527;SDS011;64597;42.664;23.256;2023-07-20T02:41:29;5.95;;;2.85;;
6527;SDS011;64597;42.664;23.256;2023-07-20T02:43:58;4.82;;;2.58;;
6527;SDS011;64597;42.664;23.256;2023-07-20T02:46:24;6.30;;;3.20;;
6527;SDS011;64597;42.664;23.256;2023-07-20T02:48:50;7.20;;;2.85;;
6527;SDS011;64597;42.664;23.256;2023-07-20T02:51:19;5.13;;;2.50;;
6527;SDS011;64597;42.664;23.256;2023-07-20T02:53:46;7.50;;;3.92;;
6527;SDS011;64597;42.664;23.256;2023-07-20T02:56:13;7.30;;;2.70;;
6527;SDS011;64597;42.664;23.256;2023-07-20T02:58:41;4.72;;;2.47;;
6527;SDS011;64597;42.664;23.256;2023-07-20T03:01:09;8.02;;;2.65;;
6527;SDS011;64597;42.664;23.256;2023-07-20T03:03:38;5.40;;;2.67;;
6527;SDS011;64597;42.664;23.256;2023-07-20T03:06:04;5.75;;;3.45;;
6527;SDS011;64597;42.664;23.256;2023-07-20T03:08:31;5.35;;;3.55;;
6527;SDS011;64597;42.664;23.256;2023-07-20T03:10:56;7.18;;;3.08;;
6527;SDS011;64597;42.664;23.256;2023-07-20T03:13:22;6.75;;;3.20;;
6527;SDS011;64597;42.664;23.256;2023-07-20T03:15:49;5.50;;;3.10;;
6527;SDS011;64597;42.664;23.256;2023-07-20T03:18:18;5.75;;;2.88;;
6527;SDS011;64597;42.664;23.256;2023-07-20T03:20:44;4.80;;;2.95;;
6527;SDS011;64597;42.664;23.256;2023-07-20T03:23:10;4.45;;;2.47;;
6527;SDS011;64597;42.664;23.256;2023-07-20T03:25:35;9.77;;;3.63;;
6527;SDS011;64597;42.664;23.256;2023-07-20T03:28:02;6.22;;;3.25;;
6527;SDS011;64597;42.664;23.256;2023-07-20T03:30:29;5.35;;;2.78;;
6527;SDS011;64597;42.664;23.256;2023-07-20T03:32:55;6.60;;;2.92;;
6527;SDS011;64597;42.664;23.256;2023-07-20T03:35:24;6.13;;;2.63;;
6527;SDS011;64597;42.664;23.256;2023-07-20T03:37:51;8.07;;;3.05;;
6527;SDS011;64597;42.664;23.256;2023-07-20T03:40:17;3.55;;;2.58;;
6527;SDS011;64597;42.664;23.256;2023-07-20T03:45:10;6.93;;;2.60;;
6527;SDS011;64597;42.664;23.256;2023-07-20T03:47:37;5.43;;;3.47;;
6527;SDS011;64597;42.664;23.256;2023-07-20T03:50:05;7.13;;;3.30;;
6527;SDS011;64597;42.664;23.256;2023-07-20T03:52:32;6.13;;;3.65;;
6527;SDS011;64597;42.664;23.256;2023-07-20T03:54:58;7.18;;;3.22;;
6527;SDS011;64597;42.664;23.256;2023-07-20T03:57:26;9.70;;;3.28;;
6527;SDS011;64597;42.664;23.256;2023-07-20T03:59:53;5.60;;;3.58;;
6527;SDS011;64597;42.664;23.256;2023-07-20T04:02:21;7.63;;;4.05;;
6527;SDS011;64597;42.664;23.256;2023-07-20T04:04:49;9.77;;;3.25;;
6527;SDS011;64597;42.664;23.256;2023-07-20T04:07:15;8.00;;;3.90;;
6527;SDS011;64597;42.664;23.256;2023-07-20T04:09:41;6.50;;;3.83;;
6527;SDS011;64597;42.664;23.256;2023-07-20T04:12:07;5.15;;;3.05;;
6527;SDS011;64597;42.664;23.256;2023-07-20T04:14:33;7.30;;;3.83;;
6527;SDS011;64597;42.664;23.256;2023-07-20T04:16:59;8.80;;;3.78;;
6527;SDS011;64597;42.664;23.256;2023-07-20T04:19:25;7.85;;;3.70;;
6527;SDS011;64597;42.664;23.256;2023-07-20T04:21:52;6.75;;;3.40;;
6527;SDS011;64597;42.664;23.256;2023-07-20T04:24:18;7.63;;;3.58;;
6527;SDS011;64597;42.664;23.256;2023-07-20T04:26:46;9.13;;;3.50;;
6527;SDS011;64597;42.664;23.256;2023-07-20T04:29:13;9.45;;;4.03;;
6527;SDS011;64597;42.664;23.256;2023-07-20T04:31:38;7.00;;;4.28;;
6527;SDS011;64597;42.664;23.256;2023-07-20T04:34:06;9.00;;;3.70;;
6527;SDS011;64597;42.664;23.256;2023-07-20T04:36:33;6.90;;;3.55;;
6527;SDS011;64597;42.664;23.256;2023-07-20T04:38:59;9.77;;;5.03;;
6527;SDS011;64597;42.664;23.256;2023-07-20T04:41:27;7.72;;;3.42;;
6527;SDS011;64597;42.664;23.256;2023-07-20T04:43:53;6.57;;;3.60;;
6527;SDS011;64597;42.664;23.256;2023-07-20T04:46:21;7.15;;;3.58;;
6527;SDS011;64597;42.664;23.256;2023-07-20T04:48:50;14.85;;;4.10;;
6527;SDS011;64597;42.664;23.256;2023-07-20T04:51:18;12.55;;;4.03;;
6527;SDS011;64597;42.664;23.256;2023-07-20T04:53:46;7.38;;;2.88;;
6527;SDS011;64597;42.664;23.256;2023-07-20T04:56:18;4.57;;;2.67;;
6527;SDS011;64597;42.664;23.256;2023-07-20T04:58:44;5.28;;;3.22;;
6527;SDS011;64597;42.664;23.256;2023-07-20T05:01:10;5.88;;;2.85;;
6527;SDS011;64597;42.664;23.256;2023-07-20T05:03:37;8.50;;;2.88;;
6527;SDS011;64597;42.664;23.256;2023-07-20T05:06:03;6.28;;;2.83;;
6527;SDS011;64597;42.664;23.256;2023-07-20T05:08:31;6.10;;;2.63;;
6527;SDS011;64597;42.664;23.256;2023-07-20T05:10:57;4.97;;;2.47;;
6527;SDS011;64597;42.664;23.256;2023-07-20T05:13:23;8.65;;;2.72;;
6527;SDS011;64597;42.664;23.256;2023-07-20T05:15:51;5.78;;;2.70;;
6527;SDS011;64597;42.664;23.256;2023-07-20T05:18:19;8.23;;;3.53;;
6527;SDS011;64597;42.664;23.256;2023-07-20T05:20:49;8.52;;;3.90;;
6527;SDS011;64597;42.664;23.256;2023-07-20T05:23:17;8.52;;;3.35;;
6527;SDS011;64597;42.664;23.256;2023-07-20T05:25:44;8.00;;;3.20;;
6527;SDS011;64597;42.664;23.256;2023-07-20T05:28:10;5.10;;;3.10;;
6527;SDS011;64597;42.664;23.256;2023-07-20T05:30:37;6.82;;;2.47;;
6527;SDS011;64597;42.664;23.256;2023-07-20T05:33:04;8.27;;;3.90;;
6527;SDS011;64597;42.664;23.256;2023-07-20T05:35:31;9.55;;;2.97;;
6527;SDS011;64597;42.664;23.256;2023-07-20T05:37:57;7.35;;;2.60;;
6527;SDS011;64597;42.664;23.256;2023-07-20T05:40:24;4.88;;;2.50;;
6527;SDS011;64597;42.664;23.256;2023-07-20T05:42:52;5.57;;;2.58;;
6527;SDS011;64597;42.664;23.256;2023-07-20T05:45:18;6.28;;;2.63;;
6527;SDS011;64597;42.664;23.256;2023-07-20T05:47:45;4.47;;;2.50;;
6527;SDS011;64597;42.664;23.256;2023-07-20T05:50:12;3.38;;;2.28;;
6527;SDS011;64597;42.664;23.256;2023-07-20T05:52:39;9.68;;;2.72;;
6527;SDS011;64597;42.664;23.256;2023-07-20T05:57:34;7.00;;;2.97;;
6527;SDS011;64597;42.664;23.256;2023-07-20T06:00:01;5.32;;;2.75;;
6527;SDS011;64597;42.664;23.256;2023-07-20T06:02:28;9.57;;;3.50;;
6527;SDS011;64597;42.664;23.256;2023-07-20T06:04:55;9.70;;;3.13;;
6527;SDS011;64597;42.664;23.256;2023-07-20T06:07:22;9.68;;;3.47;;
6527;SDS011;64597;42.664;23.256;2023-07-20T06:09:49;7.85;;;2.90;;
6527;SDS011;64597;42.664;23.256;2023-07-20T06:12:17;4.18;;;2.65;;
6527;SDS011;64597;42.664;23.256;2023-07-20T06:14:46;6.85;;;3.58;;
6527;SDS011;64597;42.664;23.256;2023-07-20T06:17:12;6.97;;;2.90;;
6527;SDS011;64597;42.664;23.256;2023-07-20T06:19:39;5.90;;;3.17;;
6527;SDS011;64597;42.664;23.256;2023-07-20T06:22:06;7.47;;;3.17;;
6527;SDS011;64597;42.664;23.256;2023-07-20T06:24:33;4.88;;;2.70;;
6527;SDS011;64597;42.664;23.256;2023-07-20T06:27:00;10.07;;;3.17;;
6527;SDS011;64597;42.664;23.256;2023-07-20T06:29:26;9.13;;;3.60;;
6527;SDS011;64597;42.664;23.256;2023-07-20T06:31:53;5.47;;;3.15;;
6527;SDS011;64597;42.664;23.256;2023-07-20T06:34:19;6.05;;;3.10;;
6527;SDS011;64597;42.664;23.256;2023-07-20T06:36:46;6.00;;;2.75;;
6527;SDS011;64597;42.664;23.256;2023-07-20T06:39:15;6.63;;;2.95;;
6527;SDS011;64597;42.664;23.256;2023-07-20T06:41:41;9.02;;;3.05;;
6527;SDS011;64597;42.664;23.256;2023-07-20T06:44:06;5.57;;;2.92;;
6527;SDS011;64597;42.664;23.256;2023-07-20T06:46:33;10.50;;;2.95;;
6527;SDS011;64597;42.664;23.256;2023-07-20T06:48:59;7.68;;;2.80;;
6527;SDS011;64597;42.664;23.256;2023-07-20T06:51:25;8.95;;;2.97;;
6527;SDS011;64597;42.664;23.256;2023-07-20T06:53:51;6.18;;;3.08;;
6527;SDS011;64597;42.664;23.256;2023-07-20T06:56:17;7.22;;;2.72;;
6527;SDS011;64597;42.664;23.256;2023-07-20T06:58:43;10.40;;;2.97;;
6527;SDS011;64597;42.664;23.256;2023-07-20T07:01:09;7.65;;;3.00;;
6527;SDS011;64597;42.664;23.256;2023-07-20T07:03:35;7.55;;;3.45;;
6527;SDS011;64597;42.664;23.256;2023-07-20T07:06:02;8.95;;;3.17;;
6527;SDS011;64597;42.664;23.256;2023-07-20T07:08:29;9.25;;;4.20;;
6527;SDS011;64597;42.664;23.256;2023-07-20T07:10:56;6.50;;;3.20;;
6527;SDS011;64597;42.664;23.256;2023-07-20T07:13:22;6.68;;;2.95;;
6527;SDS011;64597;42.664;23.256;2023-07-20T07:15:47;6.85;;;3.53;;
6527;SDS011;64597;42.664;23.256;2023-07-20T07:18:13;7.13;;;3.47;;
6527;SDS011;64597;42.664;23.256;2023-07-20T07:20:41;8.30;;;3.10;;
6527;SDS011;64597;42.664;23.256;2023-07-20T07:23:14;11.30;;;3.50;;
6527;SDS011;64597;42.664;23.256;2023-07-20T07:25:41;8.25;;;3.70;;
6527;SDS011;64597;42.664;23.256;2023-07-20T07:28:07;9.00;;;3.38;;
6527;SDS011;64597;42.664;23.256;2023-07-20T07:30:34;6.45;;;3.47;;
6527;SDS011;64597;42.664;23.256;2023-07-20T07:32:59;7.55;;;3.60;;
6527;SDS011;64597;42.664;23.256;2023-07-20T07:35:25;9.20;;;3.35;;
6527;SDS011;64597;42.664;23.256;2023-07-20T07:37:51;8.13;;;3.45;;
6527;SDS011;64597;42.664;23.256;2023-07-20T07:40:19;7.85;;;3.67;;
6527;SDS011;64597;42.664;23.256;2023-07-20T07:45:13;7.80;;;3.30;;
6527;SDS011;64597;42.664;23.256;2023-07-20T07:47:40;6.55;;;3.35;;
6527;SDS011;64597;42.664;23.256;2023-07-20T07:50:07;8.60;;;3.72;;
6527;SDS011;64597;42.664;23.256;2023-07-20T07:52:35;10.27;;;7.10;;
6527;SDS011;64597;42.664;23.256;2023-07-20T07:55:02;10.10;;;3.67;;
6527;SDS011;64597;42.664;23.256;2023-07-20T07:57:29;9.23;;;3.78;;
6527;SDS011;64597;42.664;23.256;2023-07-20T07:59:55;10.07;;;3.50;;
6527;SDS011;64597;42.664;23.256;2023-07-20T08:02:21;9.38;;;4.28;;
6527;SDS011;64597;42.664;23.256;2023-07-20T08:04:49;12.27;;;4.13;;
6527;SDS011;64597;42.664;23.256;2023-07-20T08:07:17;8.35;;;4.10;;
6527;SDS011;64597;42.664;23.256;2023-07-20T08:09:44;6.85;;;3.38;;
6527;SDS011;64597;42.664;23.256;2023-07-20T08:12:10;9.90;;;3.25;;
6527;SDS011;64597;42.664;23.256;2023-07-20T08:14:35;7.93;;;2.90;;
6527;SDS011;64597;42.664;23.256;2023-07-20T08:17:01;5.78;;;3.30;;
6527;SDS011;64597;42.664;23.256;2023-07-20T08:19:26;6.75;;;3.40;;
6527;SDS011;64597;42.664;23.256;2023-07-20T08:21:52;9.15;;;4.03;;
6527;SDS011;64597;42.664;23.256;2023-07-20T08:24:18;8.55;;;3.42;;
6527;SDS011;64597;42.664;23.256;2023-07-20T08:26:43;7.60;;;2.33;;
6527;SDS011;64597;42.664;23.256;2023-07-20T08:29:09;6.63;;;2.80;;
6527;SDS011;64597;42.664;23.256;2023-07-20T08:31:34;6.78;;;2.67;;
6527;SDS011;64597;42.664;23.256;2023-07-20T08:34:00;5.85;;;2.72;;
6527;SDS011;64597;42.664;23.256;2023-07-20T08:36:25;4.20;;;2.58;;
6527;SDS011;64597;42.664;23.256;2023-07-20T08:38:52;4.50;;;1.85;;
6527;SDS011;64597;42.664;23.256;2023-07-20T08:41:17;7.65;;;2.47;;
6527;SDS011;64597;42.664;23.256;2023-07-20T08:43:43;5.32;;;2.53;;
6527;SDS011;64597;42.664;23.256;2023-07-20T08:46:12;4.30;;;2.20;;
6527;SDS011;64597;42.664;23.256;2023-07-20T08:48:40;6.95;;;2.65;;
6527;SDS011;64597;42.664;23.256;2023-07-20T08:51:07;5.30;;;2.60;;
6527;SDS011;64597;42.664;23.256;2023-07-20T08:53:32;5.60;;;2.70;;
6527;SDS011;64597;42.664;23.256;2023-07-20T08:55:59;5.78;;;2.13;;
6527;SDS011;64597;42.664;23.256;2023-07-20T09:00:53;6.30;;;2.45;;
6527;SDS011;64597;42.664;23.256;2023-07-20T09:03:20;5.28;;;2.10;;
6527;SDS011;64597;42.664;23.256;2023-07-20T09:05:47;5.95;;;2.60;;
6527;SDS011;64597;42.664;23.256;2023-07-20T09:08:15;3.08;;;2.03;;
6527;SDS011;64597;42.664;23.256;2023-07-20T09:10:42;6.38;;;2.53;;
6527;SDS011;64597;42.664;23.256;2023-07-20T09:13:09;6.03;;;1.83;;
6527;SDS011;64597;42.664;23.256;2023-07-20T09:15:48;4.93;;;1.85;;
6527;SDS011;64597;42.664;23.256;2023-07-20T09:18:25;7.20;;;2.25;;
6527;SDS011;64597;42.664;23.256;2023-07-20T09:21:04;10.48;;;2.38;;
6527;SDS011;64597;42.664;23.256;2023-07-20T09:23:34;8.35;;;2.20;;
6527;SDS011;64597;42.664;23.256;2023-07-20T09:26:10;5.30;;;2.08;;
6527;SDS011;64597;42.664;23.256;2023-07-20T09:28:43;6.68;;;2.38;;
6527;SDS011;64597;42.664;23.256;2023-07-20T09:31:16;5.63;;;2.20;;
6527;SDS011;64597;42.664;23.256;2023-07-20T09:33:49;5.30;;;2.13;;
6527;SDS011;64597;42.664;23.256;2023-07-20T09:36:18;6.25;;;2.05;;
6527;SDS011;64597;42.664;23.256;2023-07-20T09:38:44;7.55;;;3.28;;
6527;SDS011;64597;42.664;23.256;2023-07-20T09:41:15;5.82;;;2.10;;
6527;SDS011;64597;42.664;23.256;2023-07-20T09:43:43;6.18;;;2.20;;
6527;SDS011;64597;42.664;23.256;2023-07-20T09:46:13;8.30;;;2.65;;
6527;SDS011;64597;42.664;23.256;2023-07-20T09:48:48;7.47;;;2.28;;
6527;SDS011;64597;42.664;23.256;2023-07-20T09:51:22;5.95;;;2.80;;
6527;SDS011;64597;42.664;23.256;2023-07-20T09:53:52;6.28;;;2.25;;
6527;SDS011;64597;42.664;23.256;2023-07-20T09:56:21;5.20;;;2.13;;
6527;SDS011;64597;42.664;23.256;2023-07-20T09:58:50;5.50;;;2.40;;
6527;SDS011;64597;42.664;23.256;2023-07-20T10:01:17;3.58;;;2.13;;
6527;SDS011;64597;42.664;23.256;2023-07-20T10:03:48;6.80;;;2.00;;
6527;SDS011;64597;42.664;23.256;2023-07-20T10:06:23;4.35;;;2.10;;
6527;SDS011;64597;42.664;23.256;2023-07-20T10:08:52;5.65;;;2.17;;
6527;SDS011;64597;42.664;23.256;2023-07-20T10:11:23;3.75;;;2.10;;
6527;SDS011;64597;42.664;23.256;2023-07-20T10:13:55;5.10;;;2.53;;
6527;SDS011;64597;42.664;23.256;2023-07-20T10:21:29;5.28;;;2.00;;
6527;SDS011;64597;42.664;23.256;2023-07-20T10:23:56;5.15;;;2.03;;
6527;SDS011;64597;42.664;23.256;2023-07-20T10:26:23;7.22;;;2.17;;
6527;SDS011;64597;42.664;23.256;2023-07-20T10:28:52;3.63;;;1.83;;
6527;SDS011;64597;42.664;23.256;2023-07-20T10:31:19;3.85;;;1.63;;
6527;SDS011;64597;42.664;23.256;2023-07-20T10:33:50;3.30;;;1.88;;
6527;SDS011;64597;42.664;23.256;2023-07-20T10:36:21;6.15;;;1.85;;
6527;SDS011;64597;42.664;23.256;2023-07-20T10:38:52;5.63;;;2.20;;
6527;SDS011;64597;42.664;23.256;2023-07-20T10:41:27;5.13;;;1.88;;
6527;SDS011;64597;42.664;23.256;2023-07-20T10:43:58;9.27;;;2.30;;
6527;SDS011;64597;42.664;23.256;2023-07-20T10:46:35;3.53;;;1.92;;
6527;SDS011;64597;42.664;23.256;2023-07-20T10:49:15;4.43;;;2.17;;
6527;SDS011;64597;42.664;23.256;2023-07-20T10:51:44;4.15;;;2.05;;
6527;SDS011;64597;42.664;23.256;2023-07-20T10:56:42;7.45;;;2.88;;
6527;SDS011;64597;42.664;23.256;2023-07-20T11:01:50;7.43;;;2.97;;
6527;SDS011;64597;42.664;23.256;2023-07-20T11:07:11;8.45;;;3.30;;
6527;SDS011;64597;42.664;23.256;2023-07-20T11:09:43;5.32;;;2.35;;
6527;SDS011;64597;42.664;23.256;2023-07-20T11:12:14;6.68;;;3.20;;
6527;SDS011;64597;42.664;23.256;2023-07-20T11:14:53;5.30;;;2.97;;
6527;SDS011;64597;42.664;23.256;2023-07-20T11:17:28;5.03;;;3.17;;
6527;SDS011;64597;42.664;23.256;2023-07-20T11:19:59;3.95;;;3.38;;
6527;SDS011;64597;42.664;23.256;2023-07-20T11:22:26;6.70;;;3.38;;
6527;SDS011;64597;42.664;23.256;2023-07-20T11:24:56;6.45;;;3.42;;
6527;SDS011;64597;42.664;23.256;2023-07-20T11:27:24;6.05;;;3.80;;
6527;SDS011;64597;42.664;23.256;2023-07-20T11:29:52;5.28;;;3.67;;
6527;SDS011;64597;42.664;23.256;2023-07-20T11:32:22;7.00;;;4.50;;
6527;SDS011;64597;42.664;23.256;2023-07-20T11:34:49;6.22;;;3.60;;
6527;SDS011;64597;42.664;23.256;2023-07-20T11:37:14;5.85;;;3.95;;
6527;SDS011;64597;42.664;23.256;2023-07-20T11:39:41;5.80;;;3.97;;
6527;SDS011;64597;42.664;23.256;2023-07-20T11:42:06;8.95;;;4.13;;
6527;SDS011;64597;42.664;23.256;2023-07-20T11:44:32;5.63;;;3.88;;
6527;SDS011;64597;42.664;23.256;2023-07-20T11:47:05;6.47;;;4.03;;
6527;SDS011;64597;42.664;23.256;2023-07-20T11:49:36;5.13;;;3.72;;
6527;SDS011;64597;42.664;23.256;2023-07-20T11:52:03;6.38;;;4.70;;
6527;SDS011;64597;42.664;23.256;2023-07-20T11:54:30;7.72;;;3.60;;
6527;SDS011;64597;42.664;23.256;2023-07-20T11:56:56;5.85;;;3.92;;
6527;SDS011;64597;42.664;23.256;2023-07-20T11:59:26;8.25;;;4.28;;
6527;SDS011;64597;42.664;23.256;2023-07-20T12:01:51;5.47;;;3.30;;
6527;SDS011;64597;42.664;23.256;2023-07-20T12:04:17;3.30;;;2.63;;
6527;SDS011;64597;42.664;23.256;2023-07-20T12:06:44;5.38;;;2.80;;
6527;SDS011;64597;42.664;23.256;2023-07-20T12:09:13;4.47;;;2.80;;
6527;SDS011;64597;42.664;23.256;2023-07-20T12:11:42;5.28;;;3.20;;
6527;SDS011;64597;42.664;23.256;2023-07-20T12:14:10;6.53;;;3.20;;
6527;SDS011;64597;42.664;23.256;2023-07-20T12:16:37;4.55;;;2.70;;
6527;SDS011;64597;42.664;23.256;2023-07-20T12:19:09;6.43;;;2.67;;
6527;SDS011;64597;42.664;23.256;2023-07-20T12:21:38;5.50;;;3.28;;
6527;SDS011;64597;42.664;23.256;2023-07-20T12:24:07;7.00;;;3.05;;
6527;SDS011;64597;42.664;23.256;2023-07-20T12:26:37;7.38;;;2.70;;
6527;SDS011;64597;42.664;23.256;2023-07-20T12:29:03;4.63;;;3.13;;
6527;SDS011;64597;42.664;23.256;2023-07-20T12:31:30;6.10;;;3.50;;
6527;SDS011;64597;42.664;23.256;2023-07-20T12:33:58;5.25;;;3.08;;
6527;SDS011;64597;42.664;23.256;2023-07-20T12:36:24;5.90;;;3.10;;
6527;SDS011;64597;42.664;23.256;2023-07-20T12:38:52;6.97;;;3.30;;
6527;SDS011;64597;42.664;23.256;2023-07-20T12:41:19;6.68;;;3.08;;
6527;SDS011;64597;42.664;23.256;2023-07-20T12:43:46;5.43;;;3.25;;
6527;SDS011;64597;42.664;23.256;2023-07-20T12:46:13;7.63;;;2.97;;
6527;SDS011;64597;42.664;23.256;2023-07-20T12:48:41;6.82;;;2.92;;
6527;SDS011;64597;42.664;23.256;2023-07-20T12:51:09;7.32;;;3.13;;
6527;SDS011;64597;42.664;23.256;2023-07-20T12:53:35;3.55;;;2.20;;
6527;SDS011;64597;42.664;23.256;2023-07-20T12:56:03;5.88;;;2.55;;
6527;SDS011;64597;42.664;23.256;2023-07-20T12:58:29;4.07;;;2.33;;
6527;SDS011;64597;42.664;23.256;2023-07-20T13:00:56;6.25;;;2.50;;
6527;SDS011;64597;42.664;23.256;2023-07-20T13:03:23;5.03;;;3.20;;
6527;SDS011;64597;42.664;23.256;2023-07-20T13:05:52;6.78;;;2.85;;
6527;SDS011;64597;42.664;23.256;2023-07-20T13:08:19;4.63;;;3.15;;
6527;SDS011;64597;42.664;23.256;2023-07-20T13:10:45;4.85;;;2.42;;
6527;SDS011;64597;42.664;23.256;2023-07-20T13:13:11;5.72;;;3.20;;
6527;SDS011;64597;42.664;23.256;2023-07-20T13:15:41;8.77;;;2.80;;
6527;SDS011;64597;42.664;23.256;2023-07-20T13:18:09;11.18;;;4.30;;
6527;SDS011;64597;42.664;23.256;2023-07-20T13:20:36;4.50;;;3.05;;
6527;SDS011;64597;42.664;23.256;2023-07-20T13:23:03;10.15;;;2.97;;
6527;SDS011;64597;42.664;23.256;2023-07-20T13:25:36;6.07;;;3.05;;
6527;SDS011;64597;42.664;23.256;2023-07-20T13:28:02;7.18;;;2.92;;
6527;SDS011;64597;42.664;23.256;2023-07-20T13:30:29;6.25;;;2.35;;
6527;SDS011;64597;42.664;23.256;2023-07-20T13:32:56;4.82;;;3.00;;
6527;SDS011;64597;42.664;23.256;2023-07-20T13:35:23;8.07;;;2.90;;
6527;SDS011;64597;42.664;23.256;2023-07-20T13:37:51;5.43;;;2.53;;
6527;SDS011;64597;42.664;23.256;2023-07-20T13:40:19;6.63;;;3.15;;
6527;SDS011;64597;42.664;23.256;2023-07-20T13:42:48;6.15;;;2.50;;
6527;SDS011;64597;42.664;23.256;2023-07-20T13:45:14;6.63;;;3.28;;
6527;SDS011;64597;42.664;23.256;2023-07-20T13:47:40;6.20;;;2.55;;
6527;SDS011;64597;42.664;23.256;2023-07-20T13:50:07;6.18;;;2.40;;
6527;SDS011;64597;42.664;23.256;2023-07-20T13:52:35;4.68;;;2.33;;
6527;SDS011;64597;42.664;23.256;2023-07-20T13:55:02;4.93;;;2.35;;
6527;SDS011;64597;42.664;23.256;2023-07-20T13:57:29;5.57;;;2.50;;
6527;SDS011;64597;42.664;23.256;2023-07-20T13:59:55;7.00;;;2.30;;
6527;SDS011;64597;42.664;23.256;2023-07-20T14:02:22;4.65;;;2.10;;
6527;SDS011;64597;42.664;23.256;2023-07-20T14:04:50;4.43;;;2.15;;
6527;SDS011;64597;42.664;23.256;2023-07-20T14:07:21;5.55;;;2.38;;
6527;SDS011;64597;42.664;23.256;2023-07-20T14:12:17;7.70;;;2.03;;
6527;SDS011;64597;42.664;23.256;2023-07-20T14:14:47;6.15;;;2.33;;
6527;SDS011;64597;42.664;23.256;2023-07-20T14:17:14;5.53;;;2.00;;
6527;SDS011;64597;42.664;23.256;2023-07-20T14:19:44;5.93;;;1.98;;
6527;SDS011;64597;42.664;23.256;2023-07-20T14:22:14;5.90;;;2.03;;
6527;SDS011;64597;42.664;23.256;2023-07-20T14:24:41;5.18;;;2.25;;
6527;SDS011;64597;42.664;23.256;2023-07-20T14:27:07;7.30;;;2.35;;
6527;SDS011;64597;42.664;23.256;2023-07-20T14:29:34;4.85;;;2.03;;
6527;SDS011;64597;42.664;23.256;2023-07-20T14:32:02;4.00;;;2.03;;
6527;SDS011;64597;42.664;23.256;2023-07-20T14:34:30;3.85;;;1.83;;
6527;SDS011;64597;42.664;23.256;2023-07-20T14:36:58;4.55;;;2.08;;
6527;SDS011;64597;42.664;23.256;2023-07-20T14:39:26;5.03;;;2.10;;
6527;SDS011;64597;42.664;23.256;2023-07-20T14:41:52;9.60;;;3.30;;
6527;SDS011;64597;42.664;23.256;2023-07-20T14:44:18;5.25;;;2.20;;
6527;SDS011;64597;42.664;23.256;2023-07-20T14:46:47;4.28;;;3.00;;
6527;SDS011;64597;42.664;23.256;2023-07-20T14:49:16;5.07;;;2.08;;
6527;SDS011;64597;42.664;23.256;2023-07-20T14:51:43;6.28;;;2.22;;
6527;SDS011;64597;42.664;23.256;2023-07-20T14:54:12;7.90;;;3.17;;
6527;SDS011;64597;42.664;23.256;2023-07-20T14:56:39;5.18;;;2.65;;
6527;SDS011;64597;42.664;23.256;2023-07-20T14:59:19;5.13;;;2.65;;
6527;SDS011;64597;42.664;23.256;2023-07-20T15:01:48;4.60;;;1.92;;
6527;SDS011;64597;42.664;23.256;2023-07-20T15:04:16;6.95;;;1.90;;
6527;SDS011;64597;42.664;23.256;2023-07-20T15:09:09;4.15;;;2.10;;
6527;SDS011;64597;42.664;23.256;2023-07-20T15:11:39;4.72;;;2.15;;
6527;SDS011;64597;42.664;23.256;2023-07-20T15:14:06;2.78;;;1.98;;
6527;SDS011;64597;42.664;23.256;2023-07-20T15:19:04;4.93;;;1.80;;
6527;SDS011;64597;42.664;23.256;2023-07-20T15:21:32;6.63;;;2.28;;
6527;SDS011;64597;42.664;23.256;2023-07-20T15:24:00;7.55;;;2.13;;
6527;SDS011;64597;42.664;23.256;2023-07-20T15:26:26;5.45;;;2.65;;
6527;SDS011;64597;42.664;23.256;2023-07-20T15:28:52;6.70;;;2.65;;
6527;SDS011;64597;42.664;23.256;2023-07-20T15:31:22;5.25;;;2.58;;
6527;SDS011;64597;42.664;23.256;2023-07-20T15:33:50;4.25;;;2.05;;